Time;durP1;ratioP1;P1;durP2;ratioP2;P2;SDS_P1;SDS_P2;PMS_P1;PMS_P2;Temp;Humidity;BMP_temperature;BMP_pressure;BME280_temperature;BME280_humidity;BME280_pressure;Samples;Min_cycle;Max_cycle;Signal;HPM_P1;HPM_P2
2023/07/24 00:00:08;;;;;;;;;2.25;1.75;;;;;;;;5076216;27;45520;-72
2023/07/24 00:02:33;;;;;;;;;4.25;1.00;;;;;;;;5094422;27;45623;-73
2023/07/24 00:04:58;;;;;;;;;2.00;2.00;;;;;;;;5093828;27;45629;-73
2023/07/24 00:07:25;;;;;;;;;2.00;2.00;;;;;;;;5079907;27;46466;-72
2023/07/24 00:09:50;;;;;;;;;2.00;2.00;;;;;;;;5073816;28;45380;-73
2023/07/24 00:12:15;;;;;;;;;2.00;2.00;;;;;;;;5074186;28;45414;-73
2023/07/24 00:14:40;;;;;;;;;1.00;1.00;;;;;;;;5056042;28;46517;-72
2023/07/24 00:17:06;;;;;;;;;3.50;2.25;;;;;;;;5073379;28;46370;-73
2023/07/24 00:19:31;;;;;;;;;3.00;1.00;;;;;;;;5073494;28;45429;-73
2023/07/24 00:21:56;;;;;;;;;1.50;0.50;;;;;;;;5055819;28;45837;-73
2023/07/24 00:24:21;;;;;;;;;1.75;1.75;;;;;;;;5091737;27;45611;-73
2023/07/24 00:26:47;;;;;;;;;0.50;0.50;;;;;;;;5094177;27;45424;-73
2023/07/24 00:29:12;;;;;;;;;2.50;2.50;;;;;;;;5094400;27;45472;-73
2023/07/24 00:31:37;;;;;;;;;2.50;2.00;;;;;;;;5093781;27;45579;-73
2023/07/24 00:34:02;;;;;;;;;1.00;1.00;;;;;;;;5092824;27;45517;-73
2023/07/24 00:36:27;;;;;;;;;2.00;1.50;;;;;;;;5094325;27;45802;-72
2023/07/24 00:38:53;;;;;;;;;2.00;1.75;;;;;;;;5095489;27;45684;-73
2023/07/24 00:41:18;;;;;;;;;2.00;2.00;;;;;;;;5097914;27;45467;-73
2023/07/24 00:43:43;;;;;;;;;4.00;1.75;;;;;;;;5097614;27;45482;-72
2023/07/24 00:46:10;;;;;;;;;2.25;1.50;;;;;;;;5096824;27;46434;-73
2023/07/24 00:48:35;;;;;;;;;1.50;1.50;;;;;;;;5097602;27;45392;-72
2023/07/24 00:51:01;;;;;;;;;1.00;1.00;;;;;;;;5096272;27;45363;-73
2023/07/24 00:53:27;;;;;;;;;4.25;2.25;;;;;;;;5097710;27;45376;-74
2023/07/24 00:55:52;;;;;;;;;2.00;2.00;;;;;;;;5097484;27;46333;-72
2023/07/24 00:58:18;;;;;;;;;1.00;1.00;;;;;;;;5096075;27;45503;-72
2023/07/24 01:00:44;;;;;;;;;1.50;1.50;;;;;;;;5097811;27;45452;-73
2023/07/24 01:03:09;;;;;;;;;3.50;1.00;;;;;;;;5096633;27;45414;-72
2023/07/24 01:05:34;;;;;;;;;0.00;0.00;;;;;;;;5097228;27;47170;-72
2023/07/24 01:08:00;;;;;;;;;1.00;1.00;;;;;;;;5097121;27;45412;-72
2023/07/24 01:10:25;;;;;;;;;2.00;2.00;;;;;;;;5095837;27;45443;-73
2023/07/24 01:12:50;;;;;;;;;2.33;1.00;;;;;;;;5096011;27;45422;-73
2023/07/24 01:15:35;;;;;;;;;2.33;1.00;;;;;;;;5095561;27;46802;-72
2023/07/24 01:18:06;;;;;;;;;1.25;1.00;;;;;;;;5095705;27;45445;-73
2023/07/24 01:20:33;;;;;;;;;1.33;1.33;;;;;;;;5097235;27;45513;-72
2023/07/24 01:23:21;;;;;;;;;1.25;1.00;;;;;;;;5097116;27;45496;-73
2023/07/24 01:25:53;;;;;;;;;1.00;1.00;;;;;;;;5096465;27;47238;-74
2023/07/24 01:28:19;;;;;;;;;6.25;2.00;;;;;;;;5096742;27;45408;-73
2023/07/24 01:30:44;;;;;;;;;3.25;2.75;;;;;;;;5078398;27;45466;-73
2023/07/24 01:33:09;;;;;;;;;2.75;1.00;;;;;;;;5096594;27;45438;-72
2023/07/24 01:35:35;;;;;;;;;1.50;1.50;;;;;;;;5096760;27;47214;-72
2023/07/24 01:38:01;;;;;;;;;2.00;2.00;;;;;;;;5097435;27;45454;-72
2023/07/24 01:40:26;;;;;;;;;3.50;2.50;;;;;;;;5079717;27;45391;-73
2023/07/24 01:42:51;;;;;;;;;1.50;1.00;;;;;;;;5098185;27;45436;-73
2023/07/24 01:45:17;;;;;;;;;2.00;2.00;;;;;;;;5079232;27;47254;-72
2023/07/24 01:47:42;;;;;;;;;2.75;2.75;;;;;;;;5079040;27;45335;-73
2023/07/24 01:50:07;;;;;;;;;2.00;2.00;;;;;;;;5078971;27;45358;-73
2023/07/24 01:52:33;;;;;;;;;1.25;1.25;;;;;;;;5078252;27;45503;-72
2023/07/24 01:54:58;;;;;;;;;2.00;2.00;;;;;;;;5097507;27;45452;-72
2023/07/24 01:57:23;;;;;;;;;4.25;2.50;;;;;;;;5097148;27;46399;-72
2023/07/24 01:59:48;;;;;;;;;4.00;2.00;;;;;;;;5097984;27;45358;-72
2023/07/24 02:02:14;;;;;;;;;4.25;1.50;;;;;;;;5096901;27;45484;-72
2023/07/24 02:04:39;;;;;;;;;1.75;1.00;;;;;;;;5097235;27;46083;-71
2023/07/24 02:07:04;;;;;;;;;3.00;3.00;;;;;;;;5097223;27;45401;-72
2023/07/24 02:09:29;;;;;;;;;2.25;2.00;;;;;;;;5078928;27;45508;-72
2023/07/24 02:11:55;;;;;;;;;1.00;1.00;;;;;;;;5097228;27;45430;-72
2023/07/24 02:14:20;;;;;;;;;0.75;0.75;;;;;;;;5097167;27;46766;-72
2023/07/24 02:16:46;;;;;;;;;1.25;1.25;;;;;;;;5088644;27;45322;-72
2023/07/24 02:19:11;;;;;;;;;2.25;2.25;;;;;;;;5077159;28;45676;-72
2023/07/24 02:21:36;;;;;;;;;2.00;2.00;;;;;;;;5076844;28;45467;-73
2023/07/24 02:24:01;;;;;;;;;2.00;2.00;;;;;;;;5091052;27;45675;-72
2023/07/24 02:26:26;;;;;;;;;3.75;3.00;;;;;;;;5095626;27;45479;-73
2023/07/24 02:28:53;;;;;;;;;2.33;1.00;;;;;;;;5096942;27;45507;-72
2023/07/24 02:31:18;;;;;;;;;2.25;2.25;;;;;;;;5097005;27;45379;-72
2023/07/24 02:33:44;;;;;;;;;1.00;1.00;;;;;;;;5095568;27;46193;-72
2023/07/24 02:36:09;;;;;;;;;1.50;1.50;;;;;;;;5095620;27;45487;-72
2023/07/24 02:38:34;;;;;;;;;2.00;2.00;;;;;;;;5095674;27;45447;-73
2023/07/24 02:40:59;;;;;;;;;4.25;3.00;;;;;;;;5096819;27;45566;-72
2023/07/24 02:43:25;;;;;;;;;2.25;2.25;;;;;;;;5096612;27;47164;-73
2023/07/24 02:45:50;;;;;;;;;1.50;1.50;;;;;;;;5096522;27;45325;-72
2023/07/24 02:48:15;;;;;;;;;2.00;2.00;;;;;;;;5094739;27;45431;-72
2023/07/24 02:50:40;;;;;;;;;1.00;1.00;;;;;;;;5087630;27;45393;-73
2023/07/24 02:53:06;;;;;;;;;1.50;1.50;;;;;;;;5095045;27;45699;-73
2023/07/24 02:55:31;;;;;;;;;5.75;2.00;;;;;;;;5096247;27;45382;-72
2023/07/24 02:57:56;;;;;;;;;3.25;2.25;;;;;;;;5096795;27;45250;-72
2023/07/24 03:00:21;;;;;;;;;5.25;2.75;;;;;;;;5096700;27;45329;-72
2023/07/24 03:02:46;;;;;;;;;1.25;1.25;;;;;;;;5095321;27;45413;-72
2023/07/24 03:05:12;;;;;;;;;1.00;1.00;;;;;;;;5096532;27;45362;-72
2023/07/24 03:07:37;;;;;;;;;2.50;2.50;;;;;;;;5096361;27;45441;-72
2023/07/24 03:10:02;;;;;;;;;2.50;2.50;;;;;;;;5096166;27;45471;-72
2023/07/24 03:12:28;;;;;;;;;2.25;2.25;;;;;;;;5096386;27;46393;-73
2023/07/24 03:14:53;;;;;;;;;2.50;2.50;;;;;;;;5096171;27;45377;-72
2023/07/24 03:17:18;;;;;;;;;1.50;1.50;;;;;;;;5096292;27;45389;-72
2023/07/24 03:19:43;;;;;;;;;2.00;2.00;;;;;;;;5096497;27;45320;-73
2023/07/24 03:22:08;;;;;;;;;4.00;3.00;;;;;;;;5096021;27;46161;-73
2023/07/24 03:24:34;;;;;;;;;2.25;2.25;;;;;;;;5096135;27;45437;-73
2023/07/24 03:27:00;;;;;;;;;2.50;2.00;;;;;;;;5096034;27;45323;-73
2023/07/24 03:29:25;;;;;;;;;5.25;4.00;;;;;;;;5095915;27;45467;-72
2023/07/24 03:31:51;;;;;;;;;4.00;2.75;;;;;;;;5095943;27;45661;-73
2023/07/24 03:34:16;;;;;;;;;3.00;3.00;;;;;;;;5095979;27;45321;-73
2023/07/24 03:36:42;;;;;;;;;2.75;1.75;;;;;;;;5094532;27;45410;-73
2023/07/24 03:39:07;;;;;;;;;5.00;3.25;;;;;;;;5095587;27;45347;-73
2023/07/24 03:41:32;;;;;;;;;25.00;16.75;;;;;;;;5095777;27;46091;-73
2023/07/24 03:51:47;;;;;;;;;;;;;;;;;;2638805;27;278336080;-72
2023/07/24 03:59:44;;;;;;;;;1.00;1.00;;;;;;;;2;234072117;234072117;-72
2023/07/24 04:08:45;;;;;;;;;0.50;0.50;;;;;;;;2;279085938;279085938;-72
2023/07/24 04:16:42;;;;;;;;;1.50;1.50;;;;;;;;2;234069101;234069101;-72
2023/07/24 04:25:43;;;;;;;;;6.50;6.50;;;;;;;;2;279083460;279083460;-72
2023/07/24 04:33:40;;;;;;;;;2.50;2.50;;;;;;;;2;234074045;234074045;-72
2023/07/24 04:42:40;;;;;;;;;3.50;3.50;;;;;;;;2;279083530;279083530;-72
2023/07/24 04:50:38;;;;;;;;;10.50;10.50;;;;;;;;2;234069904;234069904;-72
2023/07/24 04:59:38;;;;;;;;;0.50;0.50;;;;;;;;2;279083304;279083304;-72
2023/07/24 05:07:35;;;;;;;;;12.00;4.00;;;;;;;;2;234073021;234073021;-72
2023/07/24 05:16:35;;;;;;;;;0.00;0.00;;;;;;;;2;279085977;279085977;-72
2023/07/24 05:24:33;;;;;;;;;1.00;1.00;;;;;;;;2;234071541;234071541;-72
2023/07/24 05:33:33;;;;;;;;;0.00;0.00;;;;;;;;2;279085017;279085017;-72
2023/07/24 05:41:30;;;;;;;;;1.50;1.50;;;;;;;;2;233723144;233723144;-72
2023/07/24 05:50:31;;;;;;;;;1.50;1.50;;;;;;;;2;279082551;279082551;-72
2023/07/24 05:58:29;;;;;;;;;0.00;0.00;;;;;;;;2;234067822;234067822;-72
2023/07/24 06:07:29;;;;;;;;;1.00;1.00;;;;;;;;2;279017042;279017042;-71
2023/07/24 06:15:26;;;;;;;;;1.00;1.00;;;;;;;;2;233994624;233994624;-72
2023/07/24 06:24:26;;;;;;;;;1.00;1.00;;;;;;;;2;279082073;279082073;-72
2023/07/24 06:32:24;;;;;;;;;0.50;0.50;;;;;;;;2;234071517;234071517;-73
2023/07/24 06:41:25;;;;;;;;;0.00;0.00;;;;;;;;2;279083992;279083992;-73
2023/07/24 06:49:22;;;;;;;;;8.50;0.50;;;;;;;;2;234071544;234071544;-73
2023/07/24 06:58:22;;;;;;;;;0.50;0.50;;;;;;;;2;279081459;279081459;-73
2023/07/24 07:04:11;;;;;;;;;1.50;1.50;;;;;;;;2;234072995;234072995;-74
2023/07/24 07:12:18;;;;;;;;;0.00;0.00;;;;;;;;145840;28;247787101;-73
2023/07/24 07:20:55;;;;;;;;;0.50;0.50;;;;;;;;2;236936487;236936487;-73
2023/07/24 07:29:10;;;;;;;;;1.00;1.00;;;;;;;;2;261079641;261079641;-73
2023/07/24 07:37:52;;;;;;;;;0.00;0.00;;;;;;;;2;243072463;243072463;-73
2023/07/24 07:46:08;;;;;;;;;0.00;0.00;;;;;;;;2;261079891;261079891;-72
2023/07/24 07:54:50;;;;;;;;;1.00;1.00;;;;;;;;2;243074353;243074353;-72
2023/07/24 08:03:06;;;;;;;;;0.50;0.50;;;;;;;;2;261076557;261076557;-71
2023/07/24 08:08:47;;;;;;;;;0.50;0.50;;;;;;;;2;243074075;243074075;-71
2023/07/24 08:11:12;;;;;;;;;0.50;0.50;;;;;;;;624768;27;63851278;-72
2023/07/24 08:13:38;;;;;;;;;;;;;;;;;;571474;27;41390118;-72
2023/07/24 08:16:18;;;;;;;;;3.00;3.00;;;;;;;;2579809;27;36130668;-73
2023/07/24 08:24:37;;;;;;;;;;;;;;;;;;894745;27;218099723;-72
2023/07/24 08:32:34;;;;;;;;;7.50;0.00;;;;;;;;2;234072683;234072683;-72
2023/07/24 08:41:37;;;;;;;;;0.00;0.00;;;;;;;;2;279081961;279081961;-73
2023/07/24 08:49:35;;;;;;;;;1.00;1.00;;;;;;;;2;234072694;234072694;-72
2023/07/24 08:58:36;;;;;;;;;0.00;0.00;;;;;;;;2;279085466;279085466;-71
2023/07/24 09:05:12;;;;;;;;;1.00;1.00;;;;;;;;2;234046836;234046836;-72
2023/07/24 09:07:37;;;;;;;;;1.00;1.00;;;;;;;;2029228;28;77403307;-72
2023/07/24 09:10:02;;;;;;;;;1.00;1.00;;;;;;;;5113758;27;9531;-72
2023/07/24 09:12:31;;;;;;;;;5.25;4.00;;;;;;;;5112371;28;8780;-71
2023/07/24 09:15:00;;;;;;;;;0.33;0.33;;;;;;;;5113626;27;8826;-72
2023/07/24 09:17:25;;;;;;;;;1.00;1.00;;;;;;;;5113473;27;9325;-74
2023/07/24 09:19:55;;;;;;;;;0.00;0.00;;;;;;;;5114031;27;9444;-72
2023/07/24 09:22:20;;;;;;;;;0.00;0.00;;;;;;;;5113779;27;8780;-72
2023/07/24 09:24:49;;;;;;;;;0.00;0.00;;;;;;;;5134152;27;9519;-72
2023/07/24 09:27:14;;;;;;;;;2.00;0.67;;;;;;;;5133816;27;8817;-72
2023/07/24 09:29:40;;;;;;;;;2.00;0.67;;;;;;;;5134307;27;9456;-72
2023/07/24 09:32:05;;;;;;;;;0.33;0.00;;;;;;;;5134220;27;8827;-72
2023/07/24 09:34:31;;;;;;;;;0.00;0.00;;;;;;;;5134418;27;8901;-72
2023/07/24 09:36:56;;;;;;;;;0.00;0.00;;;;;;;;5132892;27;8865;-72
2023/07/24 09:39:22;;;;;;;;;0.33;0.33;;;;;;;;5134038;27;10345;-73
2023/07/24 09:41:49;;;;;;;;;1.00;1.00;;;;;;;;5134020;27;8765;-70
2023/07/24 09:44:14;;;;;;;;;0.67;0.67;;;;;;;;5133982;27;8761;-71
2023/07/24 09:46:40;;;;;;;;;1.00;0.67;;;;;;;;5133724;27;10211;-72
2023/07/24 09:49:05;;;;;;;;;1.00;1.00;;;;;;;;5133984;27;8784;-71
2023/07/24 09:51:31;;;;;;;;;0.00;0.00;;;;;;;;5133868;27;8809;-71
2023/07/24 09:54:12;;;;;;;;;2.00;1.00;;;;;;;;5133783;27;8796;-71
2023/07/24 09:56:38;;;;;;;;;0.33;0.33;;;;;;;;5133578;27;9400;-71
2023/07/24 09:59:04;;;;;;;;;2.67;1.00;;;;;;;;5134082;27;9287;-72
2023/07/24 10:01:31;;;;;;;;;0.00;0.00;;;;;;;;5132493;27;9469;-71
2023/07/24 10:03:57;;;;;;;;;0.33;0.00;;;;;;;;5133941;27;8804;-71
2023/07/24 10:06:24;;;;;;;;;1.00;1.00;;;;;;;;5132257;27;9473;-71
2023/07/24 10:08:49;;;;;;;;;0.00;0.00;;;;;;;;5133852;27;9400;-71
2023/07/24 10:11:14;;;;;;;;;0.33;0.33;;;;;;;;5132897;27;9466;-71
2023/07/24 10:13:40;;;;;;;;;0.00;0.00;;;;;;;;5132157;27;8823;-71
2023/07/24 10:16:06;;;;;;;;;0.00;0.00;;;;;;;;5133472;27;9379;-72
2023/07/24 10:18:32;;;;;;;;;0.00;0.00;;;;;;;;5132216;27;9234;-71
2023/07/24 10:21:01;;;;;;;;;0.00;0.00;;;;;;;;5133808;27;9562;-71
2023/07/24 10:23:26;;;;;;;;;1.00;1.00;;;;;;;;5133586;27;8815;-73
2023/07/24 10:25:52;;;;;;;;;1.50;0.00;;;;;;;;5133187;27;9398;-72
2023/07/24 10:28:18;;;;;;;;;1.00;1.00;;;;;;;;5133481;27;9529;-72
2023/07/24 10:30:44;;;;;;;;;0.00;0.00;;;;;;;;5115323;27;8784;-72
2023/07/24 10:33:16;;;;;;;;;0.33;0.00;;;;;;;;5133041;27;10314;-72
2023/07/24 10:35:46;;;;;;;;;0.00;0.00;;;;;;;;5133209;27;8808;-72
2023/07/24 10:38:12;;;;;;;;;0.00;0.00;;;;;;;;5133387;27;9476;-72
2023/07/24 10:40:39;;;;;;;;;1.00;1.00;;;;;;;;5132829;27;9440;-71
2023/07/24 10:43:06;;;;;;;;;0.50;0.00;;;;;;;;5133225;27;9737;-72
2023/07/24 10:45:40;;;;;;;;;1.00;1.00;;;;;;;;5133088;27;9530;-72
2023/07/24 10:48:06;;;;;;;;;0.67;0.67;;;;;;;;5133965;27;9619;-77
2023/07/24 10:50:41;;;;;;;;;0.00;0.00;;;;;;;;5134653;27;9504;-77
2023/07/24 10:53:06;;;;;;;;;1.00;1.00;;;;;;;;5114538;27;8805;-79
2023/07/24 10:55:31;;;;;;;;;2.00;1.00;;;;;;;;5113452;28;9583;-78
2023/07/24 10:57:57;;;;;;;;;1.00;1.00;;;;;;;;5113280;28;8807;-79
2023/07/24 11:00:23;;;;;;;;;1.00;0.00;;;;;;;;5112912;28;8820;-78
2023/07/24 11:02:48;;;;;;;;;2.00;2.00;;;;;;;;5111047;28;9505;-77
2023/07/24 11:05:14;;;;;;;;;1.00;1.00;;;;;;;;5112128;28;8829;-77
2023/07/24 11:07:39;;;;;;;;;0.33;0.33;;;;;;;;5110662;28;8782;-75
2023/07/24 11:10:14;;;;;;;;;1.50;1.00;;;;;;;;5110755;28;8818;-79
2023/07/24 11:12:39;;;;;;;;;1.00;1.00;;;;;;;;5112213;28;8779;-79
2023/07/24 11:15:04;;;;;;;;;0.33;0.33;;;;;;;;5112836;28;9521;-79
2023/07/24 11:17:34;;;;;;;;;0.00;0.00;;;;;;;;5094190;28;8791;-76
2023/07/24 11:20:13;;;;;;;;;1.00;1.00;;;;;;;;5111933;28;8872;-82
2023/07/24 11:22:39;;;;;;;;;1.00;1.00;;;;;;;;5112858;27;9413;-80
2023/07/24 11:25:05;;;;;;;;;1.00;1.00;;;;;;;;5113301;28;9642;-79
2023/07/24 11:27:31;;;;;;;;;0.00;0.00;;;;;;;;5113377;27;8767;-77
2023/07/24 11:29:56;;;;;;;;;2.00;1.00;;;;;;;;5111791;28;9570;-77
2023/07/24 11:32:21;;;;;;;;;0.67;0.67;;;;;;;;5113939;28;8811;-76
2023/07/24 11:34:48;;;;;;;;;1.00;0.00;;;;;;;;5112511;28;8896;-77
2023/07/24 11:37:13;;;;;;;;;1.00;1.00;;;;;;;;5112973;28;8763;-75
2023/07/24 11:39:38;;;;;;;;;1.00;1.00;;;;;;;;5111936;28;9589;-78
2023/07/24 11:42:04;;;;;;;;;3.00;1.00;;;;;;;;5112067;28;8783;-79
2023/07/24 11:44:30;;;;;;;;;0.50;0.50;;;;;;;;5110460;28;8814;-78
2023/07/24 11:47:04;;;;;;;;;0.00;0.00;;;;;;;;5119254;27;8855;-78
2023/07/24 11:49:32;;;;;;;;;1.00;1.00;;;;;;;;5131091;27;8796;-76
2023/07/24 11:52:02;;;;;;;;;0.33;0.33;;;;;;;;5132150;27;9500;-77
2023/07/24 11:54:27;;;;;;;;;2.00;0.75;;;;;;;;5132409;27;9556;-78
2023/07/24 11:56:52;;;;;;;;;1.00;1.00;;;;;;;;5131084;27;9698;-77
2023/07/24 11:59:17;;;;;;;;;1.00;0.50;;;;;;;;5131153;27;8801;-77
2023/07/24 12:01:47;;;;;;;;;1.33;1.00;;;;;;;;5131464;27;8798;-76
2023/07/24 12:04:13;;;;;;;;;2.00;1.00;;;;;;;;5130983;27;9702;-76
2023/07/24 12:06:38;;;;;;;;;1.00;0.00;;;;;;;;5132130;27;9404;-79
2023/07/24 12:09:05;;;;;;;;;1.00;1.00;;;;;;;;5132246;27;8800;-77
2023/07/24 12:11:30;;;;;;;;;0.67;0.67;;;;;;;;5133348;27;8786;-78
2023/07/24 12:13:55;;;;;;;;;2.33;0.00;;;;;;;;5133113;27;9505;-77
2023/07/24 12:16:21;;;;;;;;;0.67;0.67;;;;;;;;5132404;27;8786;-76
2023/07/24 12:18:46;;;;;;;;;1.67;1.67;;;;;;;;5132897;27;8774;-77
2023/07/24 12:21:11;;;;;;;;;1.25;1.25;;;;;;;;5132723;27;8801;-77
2023/07/24 12:23:36;;;;;;;;;1.33;0.00;;;;;;;;5133055;27;8794;-77
2023/07/24 12:26:02;;;;;;;;;1.00;1.00;;;;;;;;5132613;27;8783;-76
2023/07/24 12:28:27;;;;;;;;;0.00;0.00;;;;;;;;5133016;27;8813;-76
2023/07/24 12:30:52;;;;;;;;;0.67;0.67;;;;;;;;5133498;27;8837;-76
2023/07/24 12:33:17;;;;;;;;;2.00;0.33;;;;;;;;5132620;27;8806;-76
2023/07/24 12:35:42;;;;;;;;;1.00;1.00;;;;;;;;5120146;27;8817;-76
2023/07/24 12:38:08;;;;;;;;;0.00;0.00;;;;;;;;5097684;28;8898;-76
2023/07/24 12:40:33;;;;;;;;;1.00;0.00;;;;;;;;5116142;28;8789;-75
2023/07/24 12:42:58;;;;;;;;;0.33;0.33;;;;;;;;5116278;28;8830;-75
2023/07/24 12:45:23;;;;;;;;;0.67;0.67;;;;;;;;5096899;28;8812;-75
2023/07/24 12:47:49;;;;;;;;;0.00;0.00;;;;;;;;5116775;28;8819;-76
2023/07/24 12:50:14;;;;;;;;;1.00;1.00;;;;;;;;5120408;28;8799;-78
2023/07/24 12:52:39;;;;;;;;;2.00;0.00;;;;;;;;5138307;27;8807;-76
2023/07/24 12:55:05;;;;;;;;;0.67;0.67;;;;;;;;5140539;27;8791;-75
2023/07/24 12:57:30;;;;;;;;;0.67;0.67;;;;;;;;5138210;27;8802;-74
2023/07/24 12:59:55;;;;;;;;;1.00;1.00;;;;;;;;5139387;27;8793;-78
2023/07/24 13:02:20;;;;;;;;;0.00;0.00;;;;;;;;5120632;27;8798;-79
2023/07/24 13:04:46;;;;;;;;;0.67;0.33;;;;;;;;5138399;27;9538;-79
2023/07/24 13:07:11;;;;;;;;;1.00;1.00;;;;;;;;5138342;27;8798;-78
2023/07/24 13:09:36;;;;;;;;;1.00;1.00;;;;;;;;5137659;27;8860;-78
2023/07/24 13:12:01;;;;;;;;;1.67;1.00;;;;;;;;5138259;27;8794;-79
2023/07/24 13:14:26;;;;;;;;;1.00;0.33;;;;;;;;5138339;27;8810;-83
2023/07/24 13:16:52;;;;;;;;;3.33;0.33;;;;;;;;5119047;27;8882;-77
2023/07/24 13:19:17;;;;;;;;;0.33;0.33;;;;;;;;5137403;27;8877;-78
2023/07/24 13:21:43;;;;;;;;;1.25;1.25;;;;;;;;5138141;27;8832;-76
2023/07/24 13:24:08;;;;;;;;;1.67;1.67;;;;;;;;5137033;27;8802;-77
2023/07/24 13:26:33;;;;;;;;;1.33;1.00;;;;;;;;5136779;27;8795;-75
2023/07/24 13:28:58;;;;;;;;;0.33;0.33;;;;;;;;5118389;27;8806;-75
2023/07/24 13:31:24;;;;;;;;;2.00;1.00;;;;;;;;5136277;27;8779;-75
2023/07/24 13:33:49;;;;;;;;;2.00;1.00;;;;;;;;5136444;27;8825;-76
2023/07/24 13:36:14;;;;;;;;;0.33;0.33;;;;;;;;5135829;27;8838;-74
2023/07/24 13:38:40;;;;;;;;;1.33;1.00;;;;;;;;5135783;27;8795;-75
2023/07/24 13:41:05;;;;;;;;;1.00;1.00;;;;;;;;5117854;27;9306;-75
2023/07/24 13:43:30;;;;;;;;;1.00;1.00;;;;;;;;5136721;27;8861;-75
2023/07/24 13:45:56;;;;;;;;;0.00;0.00;;;;;;;;5134953;27;9592;-74
2023/07/24 13:48:21;;;;;;;;;0.00;0.00;;;;;;;;5134680;27;8807;-76
2023/07/24 13:50:46;;;;;;;;;0.00;0.00;;;;;;;;5134432;27;8813;-74
2023/07/24 13:53:12;;;;;;;;;2.67;1.00;;;;;;;;5135211;27;8809;-75
2023/07/24 13:55:37;;;;;;;;;1.00;1.00;;;;;;;;5134789;27;8850;-75
2023/07/24 13:58:02;;;;;;;;;0.33;0.33;;;;;;;;5134849;27;9622;-74
2023/07/24 14:00:28;;;;;;;;;0.33;0.33;;;;;;;;5134419;27;8798;-74
2023/07/24 14:02:53;;;;;;;;;1.00;0.00;;;;;;;;5135161;27;8798;-74
2023/07/24 14:05:18;;;;;;;;;0.00;0.00;;;;;;;;5134895;27;8802;-75
2023/07/24 14:07:44;;;;;;;;;0.33;0.33;;;;;;;;5116544;27;8814;-75
2023/07/24 14:10:09;;;;;;;;;0.00;0.00;;;;;;;;5134879;27;8793;-75
2023/07/24 14:12:35;;;;;;;;;1.00;1.00;;;;;;;;5116583;27;8916;-76
2023/07/24 14:15:00;;;;;;;;;0.00;0.00;;;;;;;;5135032;27;8822;-76
2023/07/24 14:17:25;;;;;;;;;1.33;1.00;;;;;;;;5134771;27;8779;-76
2023/07/24 14:19:50;;;;;;;;;0.00;0.00;;;;;;;;5136427;27;8806;-76
2023/07/24 14:22:16;;;;;;;;;0.50;0.50;;;;;;;;5136235;27;8813;-82
2023/07/24 14:24:41;;;;;;;;;0.00;0.00;;;;;;;;5140684;27;8810;-80
2023/07/24 14:27:06;;;;;;;;;0.00;0.00;;;;;;;;5139560;27;8782;-80
2023/07/24 14:29:31;;;;;;;;;0.00;0.00;;;;;;;;5140648;27;8755;-79
2023/07/24 14:31:57;;;;;;;;;0.00;0.00;;;;;;;;5137561;27;8775;-77
2023/07/24 14:34:22;;;;;;;;;1.75;0.50;;;;;;;;5099422;28;8824;-78
2023/07/24 14:36:47;;;;;;;;;0.00;0.00;;;;;;;;5099085;28;8804;-79
2023/07/24 14:39:12;;;;;;;;;0.00;0.00;;;;;;;;5117552;28;8784;-77
2023/07/24 14:41:37;;;;;;;;;0.00;0.00;;;;;;;;5115603;28;8828;-77
2023/07/24 14:44:03;;;;;;;;;1.00;1.00;;;;;;;;5096446;28;8816;-77
2023/07/24 14:46:28;;;;;;;;;0.33;0.33;;;;;;;;5116715;28;8777;-78
2023/07/24 14:48:53;;;;;;;;;0.00;0.00;;;;;;;;5097737;28;8801;-78
2023/07/24 14:51:19;;;;;;;;;2.00;1.00;;;;;;;;5124454;27;8829;-78
2023/07/24 14:53:44;;;;;;;;;0.00;0.00;;;;;;;;5138153;27;8794;-78
2023/07/24 14:56:09;;;;;;;;;1.00;0.00;;;;;;;;5138229;27;8778;-77
2023/07/24 14:58:34;;;;;;;;;0.75;0.75;;;;;;;;5137761;27;8783;-77
2023/07/24 15:01:00;;;;;;;;;0.33;0.33;;;;;;;;5136764;27;8779;-76
2023/07/24 15:03:25;;;;;;;;;1.00;0.00;;;;;;;;5136555;27;8786;-76
2023/07/24 15:05:51;;;;;;;;;1.00;0.50;;;;;;;;5117580;27;8794;-76
2023/07/24 15:08:17;;;;;;;;;1.33;0.00;;;;;;;;5135983;27;8789;-77
2023/07/24 15:10:42;;;;;;;;;0.00;0.00;;;;;;;;5135021;27;9454;-79
2023/07/24 15:13:09;;;;;;;;;0.75;0.75;;;;;;;;5117231;27;8783;-76
2023/07/24 15:15:34;;;;;;;;;0.33;0.33;;;;;;;;5116167;27;8865;-76
2023/07/24 15:17:59;;;;;;;;;0.00;0.00;;;;;;;;5135728;27;9940;-77
2023/07/24 15:20:25;;;;;;;;;2.00;1.00;;;;;;;;5135410;27;8869;-74
2023/07/24 15:22:53;;;;;;;;;0.33;0.33;;;;;;;;5132941;27;8824;-72
2023/07/24 15:25:18;;;;;;;;;0.00;0.00;;;;;;;;5133201;27;8770;-76
2023/07/24 15:27:43;;;;;;;;;2.00;0.33;;;;;;;;5115946;27;9582;-79
2023/07/24 15:30:10;;;;;;;;;1.33;1.33;;;;;;;;5133596;27;8825;-76
2023/07/24 15:32:35;;;;;;;;;0.67;0.67;;;;;;;;5133487;27;9453;-75
2023/07/24 15:35:00;;;;;;;;;0.00;0.00;;;;;;;;5133158;27;8863;-75
2023/07/24 15:37:25;;;;;;;;;0.67;0.67;;;;;;;;5133084;27;8817;-74
2023/07/24 15:39:51;;;;;;;;;1.75;1.00;;;;;;;;5132907;27;8807;-76
2023/07/24 15:42:16;;;;;;;;;1.00;1.00;;;;;;;;5132995;27;8810;-78
2023/07/24 15:44:41;;;;;;;;;1.00;1.00;;;;;;;;5132517;27;8836;-75
2023/07/24 15:47:06;;;;;;;;;0.33;0.33;;;;;;;;5133196;27;8790;-75
2023/07/24 15:49:31;;;;;;;;;1.00;1.00;;;;;;;;5132998;27;8794;-76
2023/07/24 15:51:57;;;;;;;;;1.00;1.00;;;;;;;;5131677;27;8803;-75
2023/07/24 15:54:22;;;;;;;;;1.00;0.00;;;;;;;;5132549;27;8829;-75
2023/07/24 15:56:47;;;;;;;;;0.33;0.33;;;;;;;;5114011;27;8786;-75
2023/07/24 15:59:13;;;;;;;;;0.33;0.33;;;;;;;;5132355;27;8803;-74
2023/07/24 16:01:39;;;;;;;;;1.00;1.00;;;;;;;;5132828;27;8869;-74
2023/07/24 16:04:04;;;;;;;;;1.00;1.00;;;;;;;;5132389;27;9403;-73
2023/07/24 16:06:29;;;;;;;;;0.33;0.33;;;;;;;;5132366;27;8783;-75
2023/07/24 16:08:54;;;;;;;;;1.00;1.00;;;;;;;;5132676;27;8817;-74
2023/07/24 16:11:19;;;;;;;;;0.33;0.33;;;;;;;;5135848;27;8794;-74
2023/07/24 16:13:45;;;;;;;;;2.00;1.00;;;;;;;;5117101;27;8822;-75
2023/07/24 16:16:10;;;;;;;;;1.50;1.50;;;;;;;;5136129;27;8778;-74
2023/07/24 16:18:35;;;;;;;;;1.00;1.00;;;;;;;;5136219;27;8801;-74
2023/07/24 16:21:01;;;;;;;;;1.33;1.00;;;;;;;;5117326;27;8798;-74
2023/07/24 16:23:26;;;;;;;;;1.00;1.00;;;;;;;;5136035;27;8887;-74
2023/07/24 16:25:51;;;;;;;;;1.00;1.00;;;;;;;;5136054;27;8818;-74
2023/07/24 16:28:16;;;;;;;;;1.25;1.25;;;;;;;;5117380;27;8842;-74
2023/07/24 16:30:42;;;;;;;;;1.67;1.00;;;;;;;;5117390;27;8825;-74
2023/07/24 16:33:07;;;;;;;;;1.33;1.00;;;;;;;;5136249;27;8775;-74
2023/07/24 16:35:32;;;;;;;;;2.50;1.50;;;;;;;;5136029;27;8814;-74
2023/07/24 16:37:57;;;;;;;;;1.00;1.00;;;;;;;;5135314;27;8774;-75
2023/07/24 16:40:22;;;;;;;;;1.33;1.33;;;;;;;;5136193;27;8822;-74
2023/07/24 16:42:48;;;;;;;;;1.00;1.00;;;;;;;;5135807;27;8789;-75
2023/07/24 16:45:13;;;;;;;;;1.00;1.00;;;;;;;;5136106;27;8810;-75
2023/07/24 16:47:38;;;;;;;;;2.00;2.00;;;;;;;;5117499;27;8806;-75
2023/07/24 16:50:04;;;;;;;;;1.75;1.75;;;;;;;;5116946;27;8806;-76
2023/07/24 16:52:29;;;;;;;;;3.00;3.00;;;;;;;;5136039;27;8807;-74
2023/07/24 16:54:54;;;;;;;;;2.00;2.00;;;;;;;;5133982;27;8841;-76
2023/07/24 16:57:19;;;;;;;;;1.00;1.00;;;;;;;;5133954;27;8802;-73
2023/07/24 16:59:45;;;;;;;;;1.00;1.00;;;;;;;;5115295;27;8928;-73
2023/07/24 17:02:10;;;;;;;;;1.00;1.00;;;;;;;;5115343;27;8814;-73
2023/07/24 17:04:35;;;;;;;;;2.00;2.00;;;;;;;;5133529;27;8798;-73
2023/07/24 17:07:03;;;;;;;;;2.00;2.00;;;;;;;;5132867;27;8807;-72
2023/07/24 17:09:28;;;;;;;;;2.00;2.00;;;;;;;;5133567;27;8861;-72
2023/07/24 17:11:54;;;;;;;;;4.50;3.00;;;;;;;;5133264;27;9481;-72
2023/07/24 17:14:19;;;;;;;;;2.00;2.00;;;;;;;;5133491;27;8829;-72
2023/07/24 17:16:44;;;;;;;;;2.00;2.00;;;;;;;;5133112;27;8807;-72
2023/07/24 17:19:10;;;;;;;;;2.00;1.67;;;;;;;;5133106;27;8798;-72
2023/07/24 17:21:35;;;;;;;;;1.00;1.00;;;;;;;;5132198;27;8881;-71
2023/07/24 17:24:01;;;;;;;;;2.00;2.00;;;;;;;;5133074;27;9474;-71
2023/07/24 17:26:30;;;;;;;;;1.00;1.00;;;;;;;;5133353;27;8958;-73
2023/07/24 17:28:56;;;;;;;;;4.00;2.00;;;;;;;;5114953;27;8817;-73
2023/07/24 17:31:21;;;;;;;;;2.33;1.00;;;;;;;;5133079;27;9464;-74
2023/07/24 17:33:46;;;;;;;;;1.00;1.00;;;;;;;;5132522;27;8852;-74
2023/07/24 17:36:11;;;;;;;;;1.00;1.00;;;;;;;;5133365;27;8825;-73
2023/07/24 17:38:37;;;;;;;;;1.33;1.33;;;;;;;;5132948;27;8783;-73
2023/07/24 17:41:03;;;;;;;;;0.67;0.67;;;;;;;;5133911;27;8802;-73
2023/07/24 17:43:29;;;;;;;;;0.75;0.75;;;;;;;;5114550;27;8940;-74
2023/07/24 17:45:54;;;;;;;;;1.00;1.00;;;;;;;;5132418;27;9660;-73
2023/07/24 17:48:20;;;;;;;;;2.00;1.00;;;;;;;;5133160;27;8782;-73
2023/07/24 17:50:45;;;;;;;;;2.67;1.00;;;;;;;;5132136;27;8778;-72
2023/07/24 17:53:10;;;;;;;;;0.00;0.00;;;;;;;;5133074;27;8779;-73
2023/07/24 17:55:35;;;;;;;;;1.00;1.00;;;;;;;;5113837;27;8834;-72
2023/07/24 17:58:01;;;;;;;;;1.00;1.00;;;;;;;;5132694;27;8787;-72
2023/07/24 18:00:26;;;;;;;;;0.00;0.00;;;;;;;;5132429;27;8877;-72
2023/07/24 18:02:52;;;;;;;;;0.00;0.00;;;;;;;;5114157;27;8925;-72
2023/07/24 18:05:17;;;;;;;;;1.25;1.00;;;;;;;;5132448;27;8802;-73
2023/07/24 18:07:42;;;;;;;;;0.00;0.00;;;;;;;;5132534;27;8852;-71
2023/07/24 18:10:08;;;;;;;;;0.33;0.33;;;;;;;;5132188;27;8896;-71
2023/07/24 18:12:33;;;;;;;;;2.67;1.00;;;;;;;;5132398;27;8795;-71
2023/07/24 18:14:58;;;;;;;;;1.00;1.00;;;;;;;;5124727;27;8844;-71
2023/07/24 18:17:23;;;;;;;;;2.00;2.00;;;;;;;;5111776;28;8877;-71
2023/07/24 18:19:49;;;;;;;;;0.67;0.67;;;;;;;;5093397;28;8824;-71